TAF Text Data
IDs:
Format:
Raw Decoded Include METAR

Data at: 0244 UTC 29 Nov 2020

KBGR 290041Z 2901/2924 VRB05KT P6SM BKN070
  TEMPO 2901/2904 1SM BR BKN002
  FM291200 27005KT P6SM SCT050